createdAt,value
2023-03-01T00:02:25.576Z,-0.40
2023-03-01T00:05:26.774Z,-0.40
2023-03-01T00:08:29.080Z,-0.40
2023-03-01T00:11:34.290Z,-0.40
2023-03-01T00:14:36.610Z,-0.40
2023-03-01T00:17:37.696Z,-0.30
2023-03-01T00:20:38.355Z,-0.30
2023-03-01T00:23:39.748Z,-0.30
2023-03-01T00:26:40.699Z,-0.30
2023-03-01T00:29:41.753Z,-0.30
2023-03-01T00:32:42.885Z,-0.30
2023-03-01T00:35:43.556Z,-0.30
2023-03-01T00:38:46.471Z,-0.20
2023-03-01T00:41:47.418Z,-0.20
2023-03-01T00:44:48.200Z,-0.20
2023-03-01T00:47:53.133Z,-0.20
2023-03-01T00:50:53.847Z,-0.20
2023-03-01T00:53:58.589Z,-0.10
2023-03-01T00:56:59.742Z,-0.20
2023-03-01T01:00:01.117Z,-0.10
2023-03-01T01:03:02.148Z,-0.10
2023-03-01T01:06:10.251Z,-0.10
2023-03-01T01:09:18.447Z,-0.10
2023-03-01T01:12:19.592Z,-0.10
2023-03-01T01:15:20.181Z,-0.10
2023-03-01T01:18:21.326Z,-0.10
2023-03-01T01:21:25.060Z,-0.10
2023-03-01T01:24:26.210Z,-0.10
2023-03-01T01:27:27.010Z,-0.10
2023-03-01T01:30:27.737Z,-0.10
2023-03-01T01:33:28.860Z,-0.10
2023-03-01T01:36:30.666Z,-0.10
2023-03-01T01:39:31.924Z,-0.10
2023-03-01T01:42:33.337Z,-0.10
2023-03-01T01:45:37.106Z,-0.10
2023-03-01T01:48:49.359Z,-0.10
2023-03-01T01:51:56.656Z,-0.10
2023-03-01T01:55:16.034Z,-0.10
2023-03-01T01:58:22.093Z,-0.10
2023-03-01T02:01:22.932Z,-0.10
2023-03-01T02:04:24.484Z,-0.10
2023-03-01T02:07:27.234Z,-0.10
2023-03-01T02:10:30.251Z,-0.10
2023-03-01T02:13:34.115Z,-0.10
2023-03-01T02:16:36.220Z,-0.10
2023-03-01T02:20:08.465Z,-0.10
2023-03-01T02:23:09.928Z,-0.10
2023-03-01T02:26:49.612Z,-0.10
2023-03-01T02:29:50.580Z,-0.10
2023-03-01T02:32:56.068Z,-0.10
2023-03-01T02:35:58.349Z,-0.10
2023-03-01T02:39:04.229Z,-0.10
2023-03-01T02:42:07.092Z,0.00
2023-03-01T02:45:08.377Z,-0.10
2023-03-01T02:48:09.024Z,-0.10
2023-03-01T02:51:34.316Z,0.00
2023-03-01T02:54:48.255Z,0.00
2023-03-01T02:57:53.216Z,0.00
2023-03-01T03:00:54.718Z,0.00
2023-03-01T03:03:55.745Z,0.00
2023-03-01T03:06:56.943Z,-0.10
2023-03-01T03:09:57.810Z,0.00
2023-03-01T03:13:06.999Z,0.00
2023-03-01T03:16:08.402Z,0.00
2023-03-01T03:19:09.642Z,0.00
2023-03-01T03:22:10.719Z,0.00
2023-03-01T03:25:11.681Z,0.10
2023-03-01T03:28:12.984Z,0.10
2023-03-01T03:31:14.165Z,0.10
2023-03-01T03:34:19.293Z,0.10
2023-03-01T03:37:38.738Z,0.10
2023-03-01T03:41:06.122Z,0.10
2023-03-01T03:44:06.930Z,0.20
2023-03-01T03:47:07.626Z,0.10
2023-03-01T03:50:13.679Z,0.20
2023-03-01T03:53:14.402Z,0.20
2023-03-01T03:56:15.763Z,0.20
2023-03-01T03:59:16.621Z,0.20
2023-03-01T04:02:23.215Z,0.20
2023-03-01T04:05:26.327Z,0.20
2023-03-01T04:08:28.870Z,0.20
2023-03-01T04:11:29.994Z,0.20
2023-03-01T04:14:30.757Z,0.10
2023-03-01T04:17:31.495Z,0.20
2023-03-01T04:20:35.918Z,0.20
2023-03-01T04:23:37.117Z,0.20
2023-03-01T04:26:38.006Z,0.20
2023-03-01T04:29:39.038Z,0.20
2023-03-01T04:32:40.060Z,0.20
2023-03-01T04:35:41.666Z,0.20
2023-03-01T04:38:43.358Z,0.10
2023-03-01T04:41:44.520Z,0.20
2023-03-01T04:44:47.138Z,0.20
2023-03-01T04:47:48.522Z,0.20
2023-03-01T04:50:49.655Z,0.20
2023-03-01T04:53:51.194Z,0.20
2023-03-01T04:56:52.115Z,0.20
2023-03-01T04:59:53.416Z,0.30
2023-03-01T05:03:01.080Z,0.20
2023-03-01T05:06:02.169Z,0.20
2023-03-01T05:09:03.414Z,0.20
2023-03-01T05:12:05.002Z,0.20
2023-03-01T05:15:08.191Z,0.20
2023-03-01T05:18:12.440Z,0.20
2023-03-01T05:21:17.471Z,0.30
2023-03-01T05:24:18.563Z,0.20
2023-03-01T05:27:19.436Z,0.20
2023-03-01T05:30:20.813Z,0.30
2023-03-01T05:33:23.153Z,0.20
2023-03-01T05:36:23.937Z,0.20
2023-03-01T05:39:27.859Z,0.20
2023-03-01T05:42:28.827Z,0.20
2023-03-01T05:45:29.723Z,0.20
2023-03-01T05:48:30.569Z,0.20
2023-03-01T05:51:31.972Z,0.20
2023-03-01T05:54:33.119Z,0.20
2023-03-01T05:57:33.798Z,0.20
2023-03-01T06:00:36.330Z,0.20
2023-03-01T06:03:37.382Z,0.20
2023-03-01T06:06:39.131Z,0.20
2023-03-01T06:09:40.054Z,0.20
2023-03-01T06:12:43.198Z,0.20
2023-03-01T06:15:44.202Z,0.20
2023-03-01T06:18:44.977Z,0.10
2023-03-01T06:21:45.709Z,0.20
2023-03-01T06:24:46.570Z,0.20
2023-03-01T06:27:50.023Z,0.20
2023-03-01T06:30:51.641Z,0.20
2023-03-01T06:33:52.858Z,0.20
2023-03-01T06:36:53.638Z,0.20
2023-03-01T06:39:54.302Z,0.20
2023-03-01T06:42:55.449Z,0.20
2023-03-01T06:45:56.995Z,0.20
2023-03-01T06:48:58.039Z,0.20
2023-03-01T06:51:59.303Z,0.20
2023-03-01T06:55:00.355Z,0.20
2023-03-01T06:58:02.842Z,0.20
2023-03-01T07:01:09.055Z,0.20
2023-03-01T07:04:09.754Z,0.20
2023-03-01T07:07:11.195Z,0.20
2023-03-01T07:10:13.044Z,0.20
2023-03-01T07:13:13.966Z,0.20
2023-03-01T07:16:15.568Z,0.30
2023-03-01T07:19:16.744Z,0.30
2023-03-01T07:22:17.574Z,0.30
2023-03-01T07:25:18.872Z,0.30
2023-03-01T07:28:19.757Z,0.30
2023-03-01T07:31:20.533Z,0.30
2023-03-01T07:34:21.889Z,0.40
2023-03-01T07:37:22.939Z,0.40
2023-03-01T07:40:24.039Z,0.40
2023-03-01T07:43:25.381Z,0.30
2023-03-01T07:46:26.098Z,0.40
2023-03-01T07:49:28.099Z,0.30
2023-03-01T07:52:29.105Z,0.40
2023-03-01T07:55:30.054Z,0.40
2023-03-01T07:58:31.097Z,0.40
2023-03-01T08:01:31.911Z,0.40
2023-03-01T08:04:34.230Z,0.40
2023-03-01T08:07:35.385Z,0.40
2023-03-01T08:10:37.894Z,0.40
2023-03-01T08:13:38.996Z,0.40
2023-03-01T08:16:40.376Z,0.50
2023-03-01T08:19:41.394Z,0.50
2023-03-01T08:22:42.108Z,0.50
2023-03-01T08:25:43.423Z,0.60
2023-03-01T08:28:44.473Z,0.60
2023-03-01T08:31:45.502Z,0.60
2023-03-01T08:34:48.718Z,0.60
2023-03-01T08:37:49.946Z,0.60
2023-03-01T08:40:50.701Z,0.70
2023-03-01T08:43:52.066Z,0.70
2023-03-01T08:46:54.322Z,0.70
2023-03-01T08:49:55.365Z,0.70
2023-03-01T08:52:56.322Z,0.70
2023-03-01T08:56:01.284Z,0.70
2023-03-01T08:59:02.401Z,0.70
2023-03-01T09:02:03.329Z,0.80
2023-03-01T09:05:04.367Z,0.80
2023-03-01T09:08:05.574Z,0.80
2023-03-01T09:11:09.108Z,0.80
2023-03-01T09:14:10.335Z,0.80
2023-03-01T09:17:11.209Z,0.80
2023-03-01T09:20:12.612Z,0.90
2023-03-01T09:23:13.515Z,0.90
2023-03-01T09:26:22.945Z,0.90
2023-03-01T09:29:24.734Z,0.90
2023-03-01T09:32:26.018Z,0.90
2023-03-01T09:35:27.115Z,1.00
2023-03-01T09:38:28.614Z,1.00
2023-03-01T09:41:53.312Z,1.00
2023-03-01T09:45:05.372Z,1.00
2023-03-01T09:48:17.144Z,1.10
2023-03-01T09:51:35.441Z,1.20
2023-03-01T09:54:36.535Z,1.10
2023-03-01T09:57:54.762Z,1.20
2023-03-01T10:01:03.416Z,1.20
2023-03-01T10:04:28.884Z,1.20
2023-03-01T10:08:23.762Z,1.30
2023-03-01T10:11:33.731Z,1.30
2023-03-01T10:14:52.275Z,1.40
2023-03-01T10:18:04.355Z,1.40
2023-03-01T10:21:18.717Z,1.50
2023-03-01T10:24:22.808Z,1.60
2023-03-01T10:27:45.364Z,1.60
2023-03-01T10:30:46.547Z,1.60
2023-03-01T10:33:49.130Z,1.80
2023-03-01T10:36:57.062Z,1.90
2023-03-01T10:40:09.330Z,1.90
2023-03-01T10:43:13.430Z,2.00
2023-03-01T10:46:31.153Z,2.10
2023-03-01T10:49:32.652Z,2.10
2023-03-01T10:52:38.733Z,2.00
2023-03-01T10:55:41.481Z,2.10
2023-03-01T10:59:05.307Z,2.10
2023-03-01T11:02:30.305Z,2.20
2023-03-01T11:05:34.311Z,2.20
2023-03-01T11:08:50.740Z,2.00
2023-03-01T11:11:58.100Z,2.00
2023-03-01T11:14:59.110Z,2.10
2023-03-01T11:18:12.629Z,2.30
2023-03-01T11:21:17.126Z,2.40
2023-03-01T11:24:34.942Z,2.40
2023-03-01T11:27:44.282Z,2.40
2023-03-01T11:31:17.925Z,2.40
2023-03-01T11:34:39.412Z,2.50
2023-03-01T11:38:17.955Z,2.40
2023-03-01T11:41:24.632Z,2.20
2023-03-01T11:44:32.601Z,2.10
2023-03-01T11:48:04.426Z,2.00
2023-03-01T11:51:24.952Z,2.00
2023-03-01T11:54:36.971Z,2.10
2023-03-01T11:58:30.944Z,2.00
2023-03-01T12:01:57.583Z,2.00
2023-03-01T12:05:29.231Z,1.90
2023-03-01T12:08:57.581Z,1.80
2023-03-01T12:12:39.900Z,1.80
2023-03-01T12:16:01.707Z,1.90
2023-03-01T12:19:22.263Z,1.90
2023-03-01T12:22:56.967Z,1.90
2023-03-01T12:26:43.913Z,1.80
2023-03-01T12:30:01.294Z,2.00
2023-03-01T12:33:21.057Z,1.80
2023-03-01T12:36:41.676Z,1.90
2023-03-01T12:40:31.128Z,1.70
2023-03-01T12:44:10.669Z,1.70
2023-03-01T12:47:20.741Z,1.80
2023-03-01T12:50:37.033Z,1.80
2023-03-01T12:53:42.576Z,1.70
2023-03-01T12:56:53.769Z,1.70
2023-03-01T13:00:22.180Z,1.90
2023-03-01T13:04:13.944Z,2.00
2023-03-01T13:07:26.097Z,2.00
2023-03-01T13:10:49.658Z,2.00
2023-03-01T13:13:52.779Z,2.10
2023-03-01T13:16:54.935Z,2.30
2023-03-01T13:20:00.552Z,2.30
2023-03-01T13:23:12.866Z,2.30
2023-03-01T13:26:18.266Z,2.20
2023-03-01T13:29:28.869Z,2.20
2023-03-01T13:32:44.806Z,2.10
2023-03-01T13:35:46.522Z,2.20
2023-03-01T13:38:58.621Z,2.10
2023-03-01T13:42:01.452Z,2.10
2023-03-01T13:45:03.395Z,2.10
2023-03-01T13:48:23.229Z,2.20
2023-03-01T13:51:29.177Z,2.20
2023-03-01T13:54:34.250Z,2.20
2023-03-01T13:57:40.447Z,2.20
2023-03-01T14:00:42.345Z,2.30
2023-03-01T14:03:43.879Z,2.20
2023-03-01T14:06:44.708Z,2.20
2023-03-01T14:09:52.377Z,2.20
2023-03-01T14:13:47.794Z,2.20
2023-03-01T14:17:13.398Z,2.20
2023-03-01T14:20:29.889Z,2.30
2023-03-01T14:23:30.857Z,2.40
2023-03-01T14:26:36.699Z,2.40
2023-03-01T14:29:40.637Z,2.40
2023-03-01T14:32:41.865Z,2.40
2023-03-01T14:35:42.899Z,2.40
2023-03-01T14:38:48.306Z,2.30
2023-03-01T14:41:49.730Z,2.30
2023-03-01T14:44:55.201Z,2.30
2023-03-01T14:48:01.711Z,2.10
2023-03-01T14:51:06.338Z,2.20
2023-03-01T14:54:22.828Z,2.20
2023-03-01T14:57:27.504Z,2.20
2023-03-01T15:00:32.754Z,2.30
2023-03-01T15:03:47.839Z,2.20
2023-03-01T15:06:53.438Z,2.10
2023-03-01T15:09:54.591Z,2.10
2023-03-01T15:12:56.262Z,2.10
2023-03-01T15:16:12.125Z,2.10
2023-03-01T15:19:20.021Z,2.00
2023-03-01T15:22:24.081Z,2.00
2023-03-01T15:25:28.877Z,1.90
2023-03-01T15:28:35.535Z,2.00
2023-03-01T15:31:39.819Z,2.00
2023-03-01T15:34:40.714Z,1.90
2023-03-01T15:37:50.308Z,1.90
2023-03-01T15:40:52.244Z,1.90
2023-03-01T15:43:56.762Z,1.80
2023-03-01T15:46:58.756Z,1.80
2023-03-01T15:50:02.415Z,1.80
2023-03-01T15:53:09.034Z,1.80
2023-03-01T15:56:10.542Z,1.70
2023-03-01T15:59:15.074Z,1.70
2023-03-01T16:02:16.117Z,1.70
2023-03-01T16:05:29.946Z,1.70
2023-03-01T16:08:30.849Z,1.70
2023-03-01T16:11:33.664Z,1.70
2023-03-01T16:14:34.647Z,1.70
2023-03-01T16:17:35.762Z,1.70
2023-03-01T16:20:37.086Z,1.80
2023-03-01T16:23:38.257Z,1.80
2023-03-01T16:26:39.541Z,1.70
2023-03-01T16:29:40.665Z,1.70
2023-03-01T16:32:43.379Z,1.60
2023-03-01T16:35:45.216Z,1.60
2023-03-01T16:38:46.497Z,1.60
2023-03-01T16:41:50.837Z,1.50
2023-03-01T16:44:56.932Z,1.50
2023-03-01T16:47:58.025Z,1.50
2023-03-01T16:51:01.522Z,1.50
2023-03-01T16:54:03.277Z,1.50
2023-03-01T16:57:05.159Z,1.50
2023-03-01T17:00:10.633Z,1.50
2023-03-01T17:03:12.190Z,1.50
2023-03-01T17:06:21.597Z,1.50
2023-03-01T17:09:23.158Z,1.40
2023-03-01T17:12:24.193Z,1.40
2023-03-01T17:15:25.364Z,1.40
2023-03-01T17:18:26.135Z,1.40
2023-03-01T17:21:26.894Z,1.40
2023-03-01T17:24:27.852Z,1.40
2023-03-01T17:27:28.684Z,1.40
2023-03-01T17:30:29.879Z,1.40
2023-03-01T17:33:31.512Z,1.40
2023-03-01T17:36:34.743Z,1.40
2023-03-01T17:39:36.615Z,1.40
2023-03-01T17:42:37.625Z,1.40
2023-03-01T17:45:39.853Z,1.40
2023-03-01T17:48:41.212Z,1.30
2023-03-01T17:51:42.050Z,1.40
2023-03-01T17:54:42.750Z,1.40
2023-03-01T17:57:44.013Z,1.40
2023-03-01T18:00:45.285Z,1.40
2023-03-01T18:03:47.645Z,1.40
2023-03-01T18:06:49.012Z,1.40
2023-03-01T18:09:49.723Z,1.40
2023-03-01T18:12:52.758Z,1.30
2023-03-01T18:15:53.902Z,1.30
2023-03-01T18:18:57.131Z,1.30
2023-03-01T18:21:58.038Z,1.40
2023-03-01T18:24:58.910Z,1.30
2023-03-01T18:28:01.505Z,1.30
2023-03-01T18:31:08.679Z,1.30
2023-03-01T18:34:11.371Z,1.40
2023-03-01T18:37:12.442Z,1.40
2023-03-01T18:40:14.113Z,1.30
2023-03-01T18:43:15.346Z,1.30
2023-03-01T18:46:16.669Z,1.30
2023-03-01T18:49:17.975Z,1.40
2023-03-01T18:52:18.662Z,1.40
2023-03-01T18:55:19.290Z,1.30
2023-03-01T18:58:20.170Z,1.30
2023-03-01T19:01:25.873Z,1.40
2023-03-01T19:04:27.459Z,1.30
2023-03-01T19:07:28.318Z,1.40
2023-03-01T19:10:29.507Z,1.40
2023-03-01T19:13:31.355Z,1.40
2023-03-01T19:16:34.662Z,1.40
2023-03-01T19:19:36.481Z,1.40
2023-03-01T19:22:37.354Z,1.40
2023-03-01T19:25:38.514Z,1.40
2023-03-01T19:28:40.016Z,1.40
2023-03-01T19:31:41.054Z,1.40
2023-03-01T19:34:42.437Z,1.40
2023-03-01T19:37:43.340Z,1.40
2023-03-01T19:40:44.004Z,1.40
2023-03-01T19:43:46.498Z,1.40
2023-03-01T19:46:47.633Z,1.40
2023-03-01T19:49:48.301Z,1.40
2023-03-01T19:52:49.516Z,1.40
2023-03-01T19:55:53.147Z,1.40
2023-03-01T19:59:00.580Z,1.40
2023-03-01T20:02:01.721Z,1.40
2023-03-01T20:05:02.709Z,1.30
2023-03-01T20:08:05.206Z,1.30
2023-03-01T20:11:10.670Z,1.30
2023-03-01T20:14:12.462Z,1.30
2023-03-01T20:17:13.611Z,1.30
2023-03-01T20:20:15.241Z,1.30
2023-03-01T20:23:18.233Z,1.30
2023-03-01T20:26:20.525Z,1.30
2023-03-01T20:29:21.909Z,1.30
2023-03-01T20:32:23.161Z,1.30
2023-03-01T20:35:24.229Z,1.30
2023-03-01T20:38:26.765Z,1.30
2023-03-01T20:41:28.849Z,1.30
2023-03-01T20:44:30.020Z,1.30
2023-03-01T20:47:31.019Z,1.30
2023-03-01T20:50:31.962Z,1.30
2023-03-01T20:53:32.974Z,1.30
2023-03-01T20:56:34.446Z,1.30
2023-03-01T20:59:35.971Z,1.30
2023-03-01T21:02:38.887Z,1.30
2023-03-01T21:05:39.790Z,1.30
2023-03-01T21:08:40.887Z,1.30
2023-03-01T21:11:42.018Z,1.20
2023-03-01T21:14:42.811Z,1.20
2023-03-01T21:17:44.080Z,1.20
2023-03-01T21:20:44.812Z,1.30
2023-03-01T21:23:46.226Z,1.30
2023-03-01T21:26:47.587Z,1.30
2023-03-01T21:29:48.267Z,1.30
2023-03-01T21:32:49.174Z,1.30
2023-03-01T21:35:50.400Z,1.30
2023-03-01T21:38:53.924Z,1.30
2023-03-01T21:41:57.948Z,1.20
2023-03-01T21:44:58.783Z,1.30
2023-03-01T21:48:00.005Z,1.20
2023-03-01T21:51:02.895Z,1.10
2023-03-01T21:54:04.628Z,1.10
2023-03-01T21:57:05.597Z,1.20
2023-03-01T22:00:07.984Z,1.20
2023-03-01T22:03:14.121Z,1.20
2023-03-01T22:06:29.681Z,1.20
2023-03-01T22:09:32.087Z,1.20
2023-03-01T22:12:33.378Z,1.20
2023-03-01T22:15:34.535Z,1.20
2023-03-01T22:18:35.722Z,1.20
2023-03-01T22:21:40.837Z,1.20
2023-03-01T22:24:41.688Z,1.20
2023-03-01T22:27:42.874Z,1.10
2023-03-01T22:30:44.792Z,1.10
2023-03-01T22:33:46.028Z,1.10
2023-03-01T22:36:48.056Z,1.00
2023-03-01T22:39:48.803Z,1.10
2023-03-01T22:42:50.055Z,1.10
2023-03-01T22:45:51.052Z,1.00
2023-03-01T22:48:52.606Z,1.10
2023-03-01T22:51:53.665Z,1.00
2023-03-01T22:54:55.392Z,1.10
2023-03-01T22:57:56.431Z,1.10
2023-03-01T23:00:57.202Z,1.10
2023-03-01T23:03:58.840Z,1.20
2023-03-01T23:06:59.746Z,1.20
2023-03-01T23:10:02.432Z,1.20
2023-03-01T23:13:03.416Z,1.20
2023-03-01T23:16:04.500Z,1.10
2023-03-01T23:19:05.507Z,1.20
2023-03-01T23:22:06.798Z,1.20
2023-03-01T23:25:12.465Z,1.20
2023-03-01T23:28:13.390Z,1.20
2023-03-01T23:31:16.304Z,1.20
2023-03-01T23:34:17.612Z,1.20
2023-03-01T23:37:18.450Z,1.30
2023-03-01T23:40:20.717Z,1.30
2023-03-01T23:43:21.719Z,1.30
2023-03-01T23:46:26.949Z,1.30
2023-03-01T23:49:28.933Z,1.30
2023-03-01T23:52:36.196Z,1.30
2023-03-01T23:55:39.272Z,1.30
2023-03-01T23:58:40.463Z,1.40
